Time;durP1;ratioP1;P1;durP2;ratioP2;P2;SDS_P1;SDS_P2;PMS_P1;PMS_P2;Temp;Humidity;BMP_temperature;BMP_pressure;BME280_temperature;BME280_humidity;BME280_pressure;Samples;Min_cycle;Max_cycle;Signal;HPM_P1;HPM_P2
2021/07/01 00:02:57;;;;;;;4.47;4.07;;;;;;;19.00;60.10;99491.09;154122;1096;103113;-89
2021/07/01 00:06:02;;;;;;;4.57;3.77;;;;;;;18.92;60.27;99493.27;154074;1097;103145;-92
2021/07/01 00:09:13;;;;;;;7.30;4.50;;;;;;;18.83;60.35;99492.77;154175;1101;103196;-90
2021/07/01 00:12:19;;;;;;;4.13;3.73;;;;;;;18.85;60.39;99497.95;154063;1101;103147;-91
2021/07/01 00:15:46;;;;;;;4.30;3.90;;;;;;;18.90;60.45;99498.93;155406;1101;103289;-93
2021/07/01 00:18:51;;;;;;;4.73;3.83;;;;;;;18.91;60.38;99500.56;154050;1101;103128;-81
2021/07/01 00:21:56;;;;;;;4.23;3.77;;;;;;;18.86;60.42;99504.99;154061;1101;103133;-81
2021/07/01 00:25:01;;;;;;;5.95;4.50;;;;;;;18.78;60.31;99500.69;154121;1094;103121;-80
2021/07/01 00:28:07;;;;;;;4.40;4.00;;;;;;;18.69;60.45;99500.17;154079;1101;103221;-81
2021/07/01 00:31:12;;;;;;;4.73;4.27;;;;;;;18.65;60.57;99485.47;154120;1095;103164;-82
2021/07/01 00:34:17;;;;;;;5.10;4.70;;;;;;;18.54;60.48;99487.02;154228;1101;103195;-83
2021/07/01 00:37:22;;;;;;;4.70;4.30;;;;;;;18.43;60.81;99480.47;154169;1096;103129;-82
2021/07/01 00:40:27;;;;;;;5.17;4.20;;;;;;;18.34;60.83;99464.78;154098;1096;103131;-83
2021/07/01 00:43:32;;;;;;;5.30;4.15;;;;;;;18.28;60.86;99471.08;154104;1097;103187;-83
2021/07/01 00:46:37;;;;;;;4.50;4.10;;;;;;;18.23;61.25;99469.06;154128;1101;103224;-82
2021/07/01 00:49:44;;;;;;;4.53;3.50;;;;;;;18.28;61.49;99469.20;154065;1101;103253;-86
2021/07/01 00:52:49;;;;;;;3.93;3.63;;;;;;;18.33;60.89;99479.35;154097;1101;103516;-84
2021/07/01 00:55:54;;;;;;;4.60;3.90;;;;;;;18.33;61.05;99471.25;154095;1101;103195;-82
2021/07/01 00:58:59;;;;;;;4.47;4.07;;;;;;;18.27;60.83;99456.77;154137;1101;103141;-82
2021/07/01 01:02:05;;;;;;;4.73;4.33;;;;;;;18.22;60.89;99459.30;154120;1101;103219;-82
2021/07/01 01:05:11;;;;;;;4.87;4.43;;;;;;;18.17;61.03;99461.86;154137;1096;103202;-80
2021/07/01 01:08:16;;;;;;;4.50;4.10;;;;;;;18.13;61.14;99468.72;154153;1101;103195;-83
2021/07/01 01:11:24;;;;;;;4.60;4.20;;;;;;;18.15;61.22;99477.42;154173;1096;103131;-82
2021/07/01 01:14:48;;;;;;;4.70;4.30;;;;;;;18.09;61.00;99464.81;154100;1096;103117;-82
2021/07/01 01:17:53;;;;;;;5.23;4.30;;;;;;;18.00;60.98;99461.59;154111;1101;103199;-81
2021/07/01 01:21:00;;;;;;;4.77;4.37;;;;;;;17.84;61.28;99454.84;154114;1101;103244;-82
2021/07/01 01:24:07;;;;;;;4.90;4.50;;;;;;;17.81;61.42;99448.00;154161;1095;103235;-82
2021/07/01 01:27:14;;;;;;;4.60;4.20;;;;;;;17.74;61.30;99454.49;154244;1101;103190;-81
2021/07/01 01:30:22;;;;;;;5.10;4.30;;;;;;;17.70;61.43;99450.59;154072;1095;103216;-84
2021/07/01 01:33:27;;;;;;;4.10;3.70;;;;;;;17.65;61.28;99452.08;154181;1101;103279;-85
2021/07/01 01:36:34;;;;;;;4.57;3.67;;;;;;;17.61;61.37;99448.16;154190;1096;103164;-82
2021/07/01 01:39:40;;;;;;;4.67;4.27;;;;;;;17.60;61.53;99454.59;154122;1101;103609;-83
2021/07/01 01:42:46;;;;;;;5.00;4.27;;;;;;;17.57;61.54;99449.66;154039;1096;103121;-81
2021/07/01 01:45:52;;;;;;;4.80;4.27;;;;;;;17.52;61.50;99457.56;154119;1101;103176;-84
2021/07/01 01:48:57;;;;;;;4.60;4.20;;;;;;;17.44;61.67;99453.25;154191;1101;103317;-85
2021/07/01 01:52:03;;;;;;;4.60;4.20;;;;;;;17.45;61.76;99454.08;154240;1095;103116;-85
2021/07/01 01:55:12;;;;;;;4.90;4.50;;;;;;;17.44;61.20;99455.13;154287;1101;103349;-84
2021/07/01 01:58:18;;;;;;;5.07;4.63;;;;;;;17.38;61.53;99445.19;154178;1095;103100;-85
2021/07/01 02:01:42;;;;;;;4.93;4.43;;;;;;;17.38;61.55;99442.50;154167;1096;103200;-79
2021/07/01 02:04:47;;;;;;;4.75;4.35;;;;;;;17.34;61.48;99452.06;153986;1101;103193;-79
2021/07/01 02:07:52;;;;;;;5.20;4.70;;;;;;;17.29;61.44;99465.39;154008;1095;103205;-80
2021/07/01 02:11:06;;;;;;;5.33;4.20;;;;;;;17.18;61.62;99456.92;154014;1101;103126;-81
2021/07/01 02:14:11;;;;;;;5.53;4.50;;;;;;;17.11;61.60;99458.85;154061;1095;103150;-79
2021/07/01 02:17:36;;;;;;;4.23;3.83;;;;;;;17.08;61.61;99456.58;154094;1095;103197;-79
2021/07/01 02:20:42;;;;;;;3.90;3.50;;;;;;;17.08;61.88;99461.97;154053;1101;103269;-80
2021/07/01 02:23:49;;;;;;;5.27;4.47;;;;;;;17.13;61.75;99461.31;154134;1101;103154;-81
2021/07/01 02:26:55;;;;;;;4.50;3.80;;;;;;;17.12;61.79;99452.41;154064;1101;103266;-81
2021/07/01 02:30:01;;;;;;;5.17;4.63;;;;;;;17.09;61.61;99455.55;154147;1094;103193;-83
2021/07/01 02:33:14;;;;;;;5.47;4.87;;;;;;;17.07;62.21;99455.76;154235;1096;103103;-82
2021/07/01 02:36:20;;;;;;;4.70;4.27;;;;;;;17.04;61.99;99455.36;154109;1101;103379;-82
2021/07/01 02:39:25;;;;;;;5.13;4.63;;;;;;;17.00;61.98;99465.73;154098;1101;103218;-81
2021/07/01 02:42:30;;;;;;;6.60;4.60;;;;;;;16.98;62.23;99467.00;154009;1101;103583;-80
2021/07/01 02:45:36;;;;;;;5.95;5.00;;;;;;;16.90;62.05;99468.07;154133;1101;103524;-84
2021/07/01 02:48:49;;;;;;;5.00;4.20;;;;;;;16.90;61.93;99461.83;154214;1096;103491;-86
2021/07/01 02:51:55;;;;;;;8.90;4.73;;;;;;;16.90;62.18;99459.14;154233;1101;103290;-84
2021/07/01 02:55:00;;;;;;;6.05;4.90;;;;;;;16.92;62.03;99459.75;154257;1101;103210;-77
2021/07/01 02:58:07;;;;;;;5.30;4.80;;;;;;;16.92;61.93;99473.22;154188;1101;103170;-79
2021/07/01 03:01:32;;;;;;;5.00;4.50;;;;;;;16.91;62.12;99476.97;154071;1096;103456;-79
2021/07/01 03:04:44;;;;;;;4.30;3.90;;;;;;;16.97;61.97;99476.11;154179;1096;103157;-84
2021/07/01 03:07:50;;;;;;;4.43;4.03;;;;;;;17.02;62.35;99474.43;154207;1096;103135;-83
2021/07/01 03:10:56;;;;;;;4.77;4.37;;;;;;;17.08;61.94;99483.53;154294;1101;103195;-82
2021/07/01 03:14:02;;;;;;;5.30;4.33;;;;;;;17.16;62.41;99479.76;154530;1095;103211;-81
2021/07/01 03:17:07;;;;;;;5.23;4.50;;;;;;;17.31;62.18;99469.52;154322;1096;103545;-80
2021/07/01 03:20:13;;;;;;;5.20;4.70;;;;;;;17.51;62.19;99477.47;154041;1101;103100;-81
2021/07/01 03:23:38;;;;;;;4.73;4.33;;;;;;;17.80;61.89;99492.23;153971;1101;103227;-79
2021/07/01 03:26:43;;;;;;;4.77;4.37;;;;;;;18.06;61.78;99490.39;154092;1097;103285;-80
2021/07/01 03:29:48;;;;;;;4.90;4.40;;;;;;;18.32;61.55;99499.30;153990;1101;103221;-80
2021/07/01 03:32:55;;;;;;;4.90;4.50;;;;;;;18.58;61.71;99495.51;154085;1095;103221;-80
2021/07/01 03:36:00;;;;;;;4.40;4.00;;;;;;;18.91;61.55;99494.34;154056;1095;103124;-80
2021/07/01 03:39:24;;;;;;;7.03;4.47;;;;;;;19.37;61.86;99495.62;154019;1095;103448;-85
2021/07/01 03:42:49;;;;;;;4.37;3.87;;;;;;;20.11;61.48;99490.77;154199;1101;103253;-85
2021/07/01 03:45:55;;;;;;;3.63;3.33;;;;;;;20.63;60.77;99486.53;154102;1101;103246;-87
2021/07/01 03:49:00;;;;;;;4.10;3.70;;;;;;;20.93;60.36;99481.75;154131;1095;103256;-87
2021/07/01 03:52:24;;;;;;;4.37;3.97;;;;;;;21.21;60.38;99492.86;154173;1101;103190;-83
2021/07/01 03:55:35;;;;;;;3.85;3.40;;;;;;;21.46;60.32;99484.41;154039;1096;103121;-84
2021/07/01 03:58:41;;;;;;;3.90;3.60;;;;;;;21.60;60.06;99479.52;154073;1101;103144;-83
2021/07/01 04:02:05;;;;;;;5.23;4.00;;;;;;;21.72;60.04;99491.94;154110;1101;103139;-83
2021/07/01 04:05:12;;;;;;;4.35;3.90;;;;;;;21.93;60.02;99489.58;154134;1097;103131;-82
2021/07/01 04:08:18;;;;;;;4.53;4.13;;;;;;;22.04;59.98;99490.58;154116;1094;103243;-83
2021/07/01 04:11:29;;;;;;;4.20;3.67;;;;;;;22.27;59.85;99489.61;154121;1101;103195;-83
2021/07/01 04:14:34;;;;;;;4.87;3.50;;;;;;;22.53;59.83;99480.72;154061;1101;103134;-83
2021/07/01 04:17:58;;;;;;;4.50;4.10;;;;;;;22.64;59.59;99478.98;154087;1095;103251;-83
2021/07/01 04:21:27;;;;;;;4.23;3.83;;;;;;;22.61;59.61;99478.66;154091;1101;103125;-83
2021/07/01 04:24:50;;;;;;;4.20;3.80;;;;;;;22.61;59.65;99489.53;154099;1101;103128;-82
2021/07/01 04:28:18;;;;;;;3.97;3.53;;;;;;;22.55;59.80;99481.30;154070;1096;103132;-83
2021/07/01 04:31:25;;;;;;;4.10;3.70;;;;;;;22.52;59.82;99486.44;154092;1097;103237;-83
2021/07/01 04:34:39;;;;;;;3.90;3.60;;;;;;;22.48;59.98;99479.83;154064;1101;103104;-82
2021/07/01 04:37:44;;;;;;;4.20;3.90;;;;;;;22.42;59.98;99478.97;154094;1101;103119;-87
2021/07/01 04:40:49;;;;;;;4.03;3.73;;;;;;;22.36;60.05;99482.66;155528;1101;103481;-81
2021/07/01 04:43:55;;;;;;;4.23;3.87;;;;;;;22.32;60.07;99481.52;154609;1101;103283;-82
2021/07/01 04:47:02;;;;;;;4.47;4.00;;;;;;;22.32;60.14;99485.05;154675;1101;103116;-81
2021/07/01 04:50:10;;;;;;;4.43;4.00;;;;;;;22.36;59.97;99490.81;154160;1101;103131;-81
2021/07/01 04:53:21;;;;;;;4.47;3.93;;;;;;;22.38;60.02;99491.38;154065;1101;103216;-83
2021/07/01 04:56:46;;;;;;;4.65;3.00;;;;;;;22.39;59.71;99503.91;153905;1097;103326;-81
2021/07/01 04:59:53;;;;;;;4.00;3.60;;;;;;;22.67;59.47;99500.24;154106;1096;103147;-81
2021/07/01 05:03:06;;;;;;;3.13;2.83;;;;;;;22.94;59.09;99504.91;154133;1096;103113;-82
2021/07/01 05:06:14;;;;;;;3.50;3.20;;;;;;;23.13;58.99;99511.73;154105;1101;103518;-81
2021/07/01 05:09:20;;;;;;;5.03;3.63;;;;;;;23.22;58.93;99505.84;154200;1096;103132;-85
2021/07/01 05:12:25;;;;;;;5.07;2.83;;;;;;;23.32;58.69;99505.94;154065;1101;103209;-75
2021/07/01 05:15:31;;;;;;;4.63;3.00;;;;;;;23.52;58.47;99514.34;154049;1096;103190;-83
2021/07/01 05:18:41;;;;;;;3.30;3.00;;;;;;;23.73;58.31;99517.27;154161;1097;103176;-80
2021/07/01 05:21:56;;;;;;;4.10;2.97;;;;;;;23.69;58.36;99516.11;154028;1101;103099;-77
2021/07/01 05:25:23;;;;;;;3.30;2.97;;;;;;;23.69;57.91;99527.02;153913;1097;103435;-78
2021/07/01 05:28:46;;;;;;;4.40;3.10;;;;;;;23.82;57.72;99531.27;153958;1101;103160;-78
2021/07/01 05:32:13;;;;;;;4.60;3.10;;;;;;;23.99;57.93;99536.59;154004;1101;103222;-79
2021/07/01 05:35:21;;;;;;;3.65;2.90;;;;;;;24.12;56.98;99533.44;154126;1101;103173;-80
2021/07/01 05:38:28;;;;;;;3.73;3.10;;;;;;;24.13;56.66;99535.06;154100;1101;103242;-81
2021/07/01 05:41:34;;;;;;;3.50;3.10;;;;;;;24.14;56.69;99528.55;154006;1096;103201;-81
2021/07/01 05:44:40;;;;;;;3.97;3.00;;;;;;;24.10;56.95;99525.52;154067;1096;103142;-79
2021/07/01 05:47:46;;;;;;;3.55;3.03;;;;;;;24.24;57.05;99527.80;154109;1101;103214;-79
2021/07/01 05:50:54;;;;;;;3.30;3.00;;;;;;;24.31;56.42;99522.95;154015;1101;103123;-80
2021/07/01 05:54:06;;;;;;;3.90;3.50;;;;;;;24.43;56.84;99525.48;154082;1096;103126;-81
2021/07/01 05:57:11;;;;;;;4.80;3.23;;;;;;;24.43;56.66;99522.76;154083;1101;103125;-79
2021/07/01 06:00:18;;;;;;;3.90;2.87;;;;;;;24.38;56.02;99528.17;154412;1101;103168;-79
2021/07/01 06:03:31;;;;;;;4.43;2.73;;;;;;;24.27;56.17;99528.11;154179;1094;103733;-80
2021/07/01 06:06:49;;;;;;;2.83;2.53;;;;;;;24.03;55.97;99526.81;154145;1101;103131;-80
2021/07/01 06:10:05;;;;;;;3.10;2.60;;;;;;;23.93;56.01;99527.55;154155;1101;103132;-81
2021/07/01 06:13:14;;;;;;;2.93;2.40;;;;;;;23.89;55.73;99526.43;154148;1101;103200;-80
2021/07/01 06:16:24;;;;;;;2.63;2.40;;;;;;;23.65;55.88;99521.28;154011;1101;103156;-76
2021/07/01 06:19:29;;;;;;;4.57;2.30;;;;;;;23.63;55.46;99525.33;153963;1097;103328;-78
2021/07/01 06:22:35;;;;;;;2.67;2.20;;;;;;;23.50;55.56;99513.77;154123;1101;103193;-79
2021/07/01 06:25:40;;;;;;;3.53;2.30;;;;;;;23.48;55.35;99520.53;154155;1095;103135;-79
2021/07/01 06:28:46;;;;;;;2.30;2.10;;;;;;;23.24;55.02;99509.94;154166;1101;103168;-81
2021/07/01 06:31:51;;;;;;;2.20;2.00;;;;;;;23.23;55.11;99508.31;154123;1094;103150;-81
2021/07/01 06:34:56;;;;;;;2.50;2.20;;;;;;;23.43;54.21;99504.16;154128;1096;103266;-82
2021/07/01 06:38:08;;;;;;;2.50;2.30;;;;;;;23.33;54.53;99511.14;154163;1101;103128;-82
2021/07/01 06:41:36;;;;;;;3.27;2.37;;;;;;;23.34;54.98;99520.12;154142;1096;103158;-78
2021/07/01 06:45:18;;;;;;;2.65;2.40;;;;;;;23.47;54.61;99519.72;153776;1100;103378;-81
2021/07/01 06:48:44;;;;;;;2.87;2.60;;;;;;;23.55;54.11;99514.90;154124;1095;103150;-84
2021/07/01 06:52:22;;;;;;;2.80;2.50;;;;;;;23.46;54.29;99520.81;153947;1101;103323;-83
2021/07/01 06:55:46;;;;;;;2.47;2.27;;;;;;;23.32;53.96;99525.81;154121;1101;103227;-83
2021/07/01 06:58:54;;;;;;;2.80;2.60;;;;;;;23.35;54.75;99523.69;154256;1101;103253;-80
2021/07/01 07:01:59;;;;;;;3.67;2.30;;;;;;;23.33;53.36;99523.94;154089;1101;103227;-81
2021/07/01 07:05:06;;;;;;;3.23;2.20;;;;;;;23.33;54.36;99513.05;154227;1096;103154;-81
2021/07/01 07:08:15;;;;;;;2.65;2.35;;;;;;;23.63;54.42;99506.26;154374;1101;103432;-81
2021/07/01 07:11:21;;;;;;;2.53;2.20;;;;;;;23.68;52.52;99515.30;154280;1097;103148;-81
2021/07/01 07:14:26;;;;;;;2.50;2.30;;;;;;;23.46;53.70;99515.38;154479;1101;103222;-77
2021/07/01 07:17:33;;;;;;;3.17;2.00;;;;;;;23.61;53.16;99519.31;154005;1101;103450;-87
2021/07/01 07:20:42;;;;;;;2.60;2.40;;;;;;;23.55;53.39;99512.99;154338;1101;103182;-88
2021/07/01 07:23:54;;;;;;;2.77;2.10;;;;;;;23.58;53.59;99517.13;154228;1101;103367;-87
2021/07/01 07:26:59;;;;;;;2.10;1.90;;;;;;;23.75;53.27;99515.11;154348;1096;103224;-82
2021/07/01 07:30:07;;;;;;;4.70;3.27;;;;;;;23.76;52.62;99526.82;154147;1096;103136;-81
2021/07/01 07:33:13;;;;;;;2.63;2.10;;;;;;;23.37;52.40;99519.62;154147;1096;103118;-78
2021/07/01 07:36:22;;;;;;;2.10;1.90;;;;;;;23.38;53.34;99518.53;154137;1096;103161;-83
2021/07/01 07:39:29;;;;;;;2.00;1.90;;;;;;;23.50;53.31;99519.22;154180;1096;103238;-80
2021/07/01 07:42:34;;;;;;;3.10;2.05;;;;;;;23.72;53.01;99519.16;154206;1101;103123;-81
2021/07/01 07:45:40;;;;;;;2.83;2.00;;;;;;;23.86;52.79;99522.30;154052;1101;103135;-82
2021/07/01 07:48:46;;;;;;;2.00;1.90;;;;;;;23.99;52.91;99520.25;154144;1096;103139;-78
2021/07/01 07:51:52;;;;;;;1.90;1.80;;;;;;;24.07;52.79;99503.41;154009;1101;103157;-80
2021/07/01 07:54:59;;;;;;;3.10;2.20;;;;;;;24.15;52.59;99515.73;154154;1097;103205;-81
2021/07/01 07:58:07;;;;;;;2.40;2.20;;;;;;;24.04;52.79;99503.95;154213;1101;103214;-82
2021/07/01 08:01:13;;;;;;;2.10;1.90;;;;;;;24.00;52.19;99505.52;154095;1096;103246;-82
2021/07/01 08:04:23;;;;;;;2.20;2.00;;;;;;;23.95;51.96;99517.22;154187;1101;103224;-82
2021/07/01 08:07:28;;;;;;;2.63;2.43;;;;;;;23.87;51.28;99517.70;154256;1101;103141;-85
2021/07/01 08:10:34;;;;;;;2.20;2.00;;;;;;;23.93;52.10;99524.02;154190;1095;103298;-80
2021/07/01 08:13:40;;;;;;;4.23;2.30;;;;;;;24.10;51.92;99524.70;154108;1101;103203;-80
2021/07/01 08:16:47;;;;;;;3.50;2.30;;;;;;;24.28;52.29;99523.47;154071;1096;103194;-79
2021/07/01 08:19:53;;;;;;;2.10;1.90;;;;;;;24.53;52.13;99519.31;153973;1101;103118;-80
2021/07/01 08:23:00;;;;;;;3.13;2.13;;;;;;;24.60;51.31;99520.72;153992;1101;103100;-79
2021/07/01 08:26:05;;;;;;;2.27;2.07;;;;;;;24.71;49.36;99518.04;154222;1101;103232;-80
2021/07/01 08:29:12;;;;;;;2.80;2.23;;;;;;;24.58;50.80;99514.70;154124;1101;103138;-80
2021/07/01 08:32:19;;;;;;;3.03;2.23;;;;;;;24.60;50.70;99506.27;154033;1101;103133;-82
2021/07/01 08:35:26;;;;;;;2.03;1.83;;;;;;;24.65;50.82;99506.27;154047;1101;103125;-81
2021/07/01 08:38:35;;;;;;;1.80;1.70;;;;;;;24.72;50.75;99506.05;154086;1101;103148;-79
2021/07/01 08:41:44;;;;;;;3.00;2.00;;;;;;;24.88;49.63;99502.30;154035;1094;103307;-83
2021/07/01 08:44:57;;;;;;;2.20;2.00;;;;;;;24.56;47.75;99507.85;154171;1101;103128;-80
2021/07/01 08:48:08;;;;;;;2.50;1.90;;;;;;;24.39;50.77;99510.74;154082;1101;103219;-84
2021/07/01 08:51:21;;;;;;;2.00;1.90;;;;;;;24.52;50.72;99523.95;154073;1101;103131;-82
2021/07/01 08:54:30;;;;;;;2.10;1.90;;;;;;;24.63;50.04;99524.81;154161;1096;103147;-82
2021/07/01 08:57:37;;;;;;;2.20;2.00;;;;;;;24.49;50.38;99521.70;154220;1101;103190;-81
2021/07/01 09:00:44;;;;;;;2.30;2.10;;;;;;;24.47;49.75;99519.23;154153;1101;103224;-81
2021/07/01 09:03:51;;;;;;;2.67;1.80;;;;;;;24.42;49.04;99521.95;154135;1101;103203;-82
2021/07/01 09:07:05;;;;;;;2.47;2.27;;;;;;;24.40;50.12;99523.27;154082;1097;103256;-82
2021/07/01 09:10:13;;;;;;;3.23;2.60;;;;;;;24.58;49.57;99531.07;154158;1097;103196;-81
2021/07/01 09:13:20;;;;;;;2.17;1.97;;;;;;;24.71;48.36;99518.04;154347;1101;103212;-81
2021/07/01 09:16:27;;;;;;;3.83;1.90;;;;;;;24.68;49.25;99522.94;154133;1101;103118;-81
2021/07/01 09:19:33;;;;;;;2.75;1.85;;;;;;;24.68;50.18;99533.85;154036;1097;103194;-81
2021/07/01 09:22:40;;;;;;;3.43;2.00;;;;;;;24.89;48.33;99534.78;154074;1096;103203;-80
2021/07/01 09:25:45;;;;;;;2.60;2.40;;;;;;;24.88;49.32;99537.77;154172;1101;103139;-81
2021/07/01 09:28:52;;;;;;;2.95;2.15;;;;;;;25.04;49.52;99546.88;154089;1101;103270;-80
2021/07/01 09:32:00;;;;;;;2.30;2.10;;;;;;;25.30;49.42;99542.35;154103;1101;103116;-80
2021/07/01 09:35:08;;;;;;;2.00;1.90;;;;;;;25.60;49.04;99533.42;154138;1101;103321;-80
2021/07/01 09:38:16;;;;;;;3.20;1.90;;;;;;;25.92;48.64;99528.84;154105;1101;103563;-81
2021/07/01 09:41:23;;;;;;;2.43;1.90;;;;;;;25.92;48.26;99529.66;154088;1095;103282;-81
2021/07/01 09:44:29;;;;;;;3.37;2.10;;;;;;;25.84;48.62;99519.24;154097;1101;103257;-83
2021/07/01 09:47:40;;;;;;;2.67;1.80;;;;;;;25.92;48.40;99517.91;154126;1101;103666;-80
2021/07/01 09:50:48;;;;;;;2.20;2.00;;;;;;;25.98;48.26;99511.34;154101;1096;103122;-81
2021/07/01 09:53:55;;;;;;;2.87;1.77;;;;;;;26.16;48.32;99508.08;154070;1096;103138;-81
2021/07/01 09:57:02;;;;;;;1.90;1.80;;;;;;;26.35;48.06;99504.75;154159;1101;103184;-82
2021/07/01 10:00:10;;;;;;;3.77;2.20;;;;;;;26.40;47.35;99491.08;154097;1101;103216;-83
2021/07/01 10:03:23;;;;;;;2.57;2.17;;;;;;;26.25;47.61;99495.49;154127;1096;103113;-80
2021/07/01 10:06:28;;;;;;;2.33;1.83;;;;;;;26.36;48.58;99488.07;154085;1095;103197;-81
2021/07/01 10:09:33;;;;;;;2.20;1.70;;;;;;;26.50;47.12;99490.23;154037;1095;103102;-80
2021/07/01 10:12:51;;;;;;;2.00;1.90;;;;;;;26.27;47.30;99492.48;154054;1101;103119;-80
2021/07/01 10:15:57;;;;;;;2.30;2.10;;;;;;;26.21;46.82;99494.41;154061;1095;103381;-81
2021/07/01 10:19:04;;;;;;;2.27;1.90;;;;;;;26.07;47.15;99504.25;154167;1101;103157;-82
2021/07/01 10:22:12;;;;;;;1.90;1.80;;;;;;;26.13;47.18;99480.45;154109;1101;103266;-81
2021/07/01 10:25:29;;;;;;;2.10;1.90;;;;;;;26.33;47.39;99474.97;154406;1096;103198;-80
2021/07/01 10:28:34;;;;;;;2.40;2.13;;;;;;;26.61;46.85;99489.95;154194;1101;103218;-80
2021/07/01 10:32:06;;;;;;;4.03;2.10;;;;;;;26.82;47.01;99489.91;154087;1094;103284;-81
2021/07/01 10:35:27;;;;;;;3.57;2.00;;;;;;;26.90;46.91;99496.72;154097;1096;103189;-84
2021/07/01 10:38:46;;;;;;;2.23;2.00;;;;;;;27.09;47.10;99491.44;154220;1101;103308;-77
2021/07/01 10:42:01;;;;;;;2.20;2.00;;;;;;;27.21;46.78;99491.91;154114;1101;103198;-83
2021/07/01 10:45:13;;;;;;;2.30;1.90;;;;;;;27.29;46.50;99502.33;154024;1101;103247;-77
2021/07/01 10:48:21;;;;;;;1.97;1.77;;;;;;;27.18;46.43;99500.70;154079;1101;103177;-80
2021/07/01 10:51:28;;;;;;;2.30;1.80;;;;;;;27.24;45.77;99494.09;154220;1101;103135;-79
2021/07/01 10:54:33;;;;;;;1.60;1.50;;;;;;;27.27;46.00;99501.76;154213;1096;103221;-84
2021/07/01 10:57:46;;;;;;;1.80;1.70;;;;;;;27.30;46.17;99503.95;154400;1095;103105;-85
2021/07/01 11:00:52;;;;;;;1.60;1.50;;;;;;;27.43;46.08;99513.47;154141;1101;103291;-83
2021/07/01 11:04:09;;;;;;;2.70;1.70;;;;;;;27.53;46.33;99510.66;154163;1101;103218;-88
2021/07/01 11:07:14;;;;;;;2.37;1.70;;;;;;;27.24;45.43;99510.53;154230;1095;103195;-84
2021/07/01 11:10:35;;;;;;;2.00;1.80;;;;;;;27.17;45.75;99515.48;154154;1101;103193;-81
2021/07/01 11:13:55;;;;;;;2.13;1.93;;;;;;;27.38;45.89;99508.82;154246;1097;103650;-82
2021/07/01 11:17:02;;;;;;;2.43;1.93;;;;;;;27.44;45.45;99526.05;154101;1101;103516;-83
2021/07/01 11:20:20;;;;;;;2.33;2.00;;;;;;;27.37;45.71;99520.90;154205;1101;103363;-81
2021/07/01 11:23:25;;;;;;;3.47;2.23;;;;;;;27.12;45.24;99518.23;154159;1097;103312;-87
2021/07/01 11:26:32;;;;;;;2.30;1.80;;;;;;;26.97;45.29;99528.17;154225;1101;103131;-78
2021/07/01 11:29:40;;;;;;;1.90;1.80;;;;;;;26.83;44.46;99533.42;154236;1101;103199;-80
2021/07/01 11:32:45;;;;;;;1.90;1.80;;;;;;;26.94;45.51;99534.19;154077;1096;103280;-77
2021/07/01 11:36:08;;;;;;;2.20;2.00;;;;;;;27.14;45.09;99535.23;153975;1101;103305;-78
2021/07/01 11:39:15;;;;;;;2.97;1.70;;;;;;;27.32;45.21;99533.80;154043;1101;103243;-78
2021/07/01 11:42:20;;;;;;;4.57;2.77;;;;;;;27.35;44.88;99533.22;154116;1097;103213;-80
2021/07/01 11:45:25;;;;;;;2.10;1.90;;;;;;;27.47;44.66;99536.45;153977;1101;103130;-80
2021/07/01 11:48:32;;;;;;;2.53;2.27;;;;;;;27.52;45.05;99539.18;154039;1101;103126;-79
2021/07/01 11:51:38;;;;;;;2.20;2.00;;;;;;;27.77;44.26;99540.09;153992;1101;103224;-81
2021/07/01 11:54:43;;;;;;;2.10;1.90;;;;;;;27.96;44.37;99532.04;154188;1101;103564;-82
2021/07/01 11:57:49;;;;;;;1.90;1.80;;;;;;;28.20;44.25;99538.42;153980;1095;103164;-81
2021/07/01 12:00:55;;;;;;;3.13;2.03;;;;;;;28.33;44.24;99536.95;154120;1096;103224;-81
2021/07/01 12:04:00;;;;;;;2.50;2.30;;;;;;;28.42;44.06;99548.10;154120;1101;103279;-81
2021/07/01 12:07:12;;;;;;;3.03;2.20;;;;;;;28.38;44.20;99555.28;154094;1101;103266;-82
2021/07/01 12:10:21;;;;;;;3.57;2.30;;;;;;;28.26;43.69;99560.34;154267;1096;103224;-80
2021/07/01 12:13:43;;;;;;;2.30;2.10;;;;;;;28.16;44.17;99559.31;154115;1101;103199;-79
2021/07/01 12:16:48;;;;;;;4.37;2.20;;;;;;;28.21;43.45;99555.70;154131;1097;103144;-79
2021/07/01 12:20:04;;;;;;;4.70;2.43;;;;;;;28.20;43.95;99556.81;154149;1101;103250;-80
2021/07/01 12:23:26;;;;;;;2.30;2.10;;;;;;;27.88;43.90;99551.82;154330;1096;103181;-85
2021/07/01 12:26:46;;;;;;;2.25;2.05;;;;;;;27.83;43.81;99546.36;154182;1101;103217;-83
2021/07/01 12:29:51;;;;;;;4.27;2.67;;;;;;;28.02;44.30;99549.27;154143;1095;103208;-77
2021/07/01 12:32:56;;;;;;;4.00;2.70;;;;;;;28.19;43.39;99552.42;154061;1101;103230;-79
2021/07/01 12:36:14;;;;;;;2.95;2.50;;;;;;;28.18;43.99;99551.61;154118;1101;103119;-79
2021/07/01 12:39:26;;;;;;;2.37;2.17;;;;;;;27.95;43.49;99549.61;154103;1101;103477;-81
2021/07/01 12:42:39;;;;;;;4.10;2.85;;;;;;;27.84;44.32;99556.24;154186;1101;103208;-78
2021/07/01 12:45:45;;;;;;;3.53;2.60;;;;;;;27.93;43.84;99560.05;153983;1101;103196;-82
2021/07/01 12:48:50;;;;;;;3.07;2.37;;;;;;;27.99;43.73;99564.39;154150;1095;103118;-80
2021/07/01 12:51:58;;;;;;;3.57;2.17;;;;;;;27.92;43.41;99561.14;154142;1096;103247;-82
2021/07/01 12:55:06;;;;;;;2.50;2.30;;;;;;;27.76;44.18;99565.89;154287;1097;103315;-83
2021/07/01 12:58:11;;;;;;;2.90;2.60;;;;;;;27.73;43.75;99561.77;154476;1097;103221;-84
2021/07/01 13:01:16;;;;;;;2.80;2.17;;;;;;;27.80;44.23;99562.28;154389;1096;103201;-86
2021/07/01 13:04:26;;;;;;;2.30;2.07;;;;;;;27.79;43.85;99571.63;154359;1101;103139;-81
2021/07/01 13:07:33;;;;;;;2.60;2.40;;;;;;;27.83;43.61;99557.33;154362;1101;103144;-88
2021/07/01 13:10:39;;;;;;;2.73;2.20;;;;;;;27.82;43.09;99562.00;154352;1101;103398;-89
2021/07/01 13:13:44;;;;;;;3.17;2.10;;;;;;;27.71;43.38;99558.50;154287;1096;103164;-89
2021/07/01 13:17:04;;;;;;;3.03;2.10;;;;;;;27.81;43.86;99555.71;154294;1101;103223;-90
2021/07/01 13:20:12;;;;;;;2.23;2.00;;;;;;;27.95;43.72;99549.61;154366;1101;103158;-88
2021/07/01 13:23:22;;;;;;;3.00;2.10;;;;;;;28.02;43.07;99546.53;154378;1101;103286;-89
2021/07/01 13:26:33;;;;;;;1.97;1.87;;;;;;;28.02;42.55;99538.30;154281;1101;103221;-88
2021/07/01 13:29:40;;;;;;;2.10;1.90;;;;;;;27.70;42.93;99542.36;154480;1101;103110;-86
2021/07/01 13:32:48;;;;;;;3.40;2.00;;;;;;;27.75;42.91;99547.78;154315;1097;103237;-82
2021/07/01 13:35:54;;;;;;;2.07;1.97;;;;;;;27.55;43.04;99540.53;154418;1101;103103;-82
2021/07/01 13:38:59;;;;;;;2.53;2.07;;;;;;;27.50;42.70;99540.55;155104;1095;103106;-81
2021/07/01 13:42:24;;;;;;;5.50;5.00;;;;;;;27.41;43.44;99537.59;154565;1101;103273;-81
2021/07/01 13:45:29;;;;;;;7.07;6.37;;;;;;;27.61;43.17;99545.67;154482;1101;103128;-78
2021/07/01 13:48:34;;;;;;;6.10;5.60;;;;;;;27.85;43.59;99546.89;154099;1101;103144;-82
2021/07/01 13:51:39;;;;;;;13.87;12.57;;;;;;;28.02;43.22;99552.83;154238;1096;103560;-81
2021/07/01 13:54:45;;;;;;;5.70;5.20;;;;;;;27.80;42.58;99550.50;154110;1101;103198;-81
2021/07/01 13:57:50;;;;;;;9.05;8.05;;;;;;;27.61;43.46;99553.09;154188;1095;103304;-80
2021/07/01 14:00:57;;;;;;;7.53;6.90;;;;;;;27.65;42.88;99556.89;154190;1101;103143;-81
2021/07/01 14:04:02;;;;;;;2.85;2.65;;;;;;;27.57;43.00;99558.31;154126;1101;103134;-80
2021/07/01 14:07:07;;;;;;;4.43;4.03;;;;;;;27.50;43.15;99559.72;154118;1097;103107;-81
2021/07/01 14:10:14;;;;;;;2.40;2.20;;;;;;;27.42;41.83;99564.69;154146;1097;103192;-76
2021/07/01 14:13:19;;;;;;;3.83;2.80;;;;;;;27.10;43.13;99565.09;154105;1101;103336;-81
2021/07/01 14:16:28;;;;;;;4.25;3.40;;;;;;;27.23;43.34;99556.28;154227;1096;103219;-85
2021/07/01 14:19:35;;;;;;;2.57;2.00;;;;;;;27.40;42.51;99557.86;154162;1097;103155;-84
2021/07/01 14:22:42;;;;;;;3.00;2.43;;;;;;;27.53;42.67;99567.39;154426;1097;103117;-81
2021/07/01 14:25:48;;;;;;;3.10;1.80;;;;;;;27.59;42.92;99566.25;154476;1101;103324;-83
2021/07/01 14:29:00;;;;;;;3.10;2.80;;;;;;;27.64;42.64;99563.50;154222;1096;103216;-85
2021/07/01 14:32:06;;;;;;;3.90;3.60;;;;;;;27.67;42.63;99570.33;154239;1101;103202;-77